SAS4490 ENGM-ENSB
Flight info
| Callsign | SAS4490 |
|---|---|
| Flight time | N/A |
| Altitude | 37000 |
| Route | RIBBE DCT GIGNI DCT SOMUB/N0457F380 DCT OMEXA/N0452F370 M604 INPAR |
| Aircraft | A20N/M-SDE3FGIJ1RWXY/ALB1 |
Departure
| Time | N/A |
|---|---|
| Airport | Oslo-Gardermoen International Airport (ENGM) |
Arrival
| Time | 2026-04-27 09:34 |
|---|---|
| Airport | Svalbard Airport, Longyear (ENSB) |
| Time | Latitude | Longitude | Altitude | Speed | Heading |
|---|---|---|---|---|---|
| 2026-04-27 09:14 | 77.19466 | 13.20893 | 22943 ft | 359 kts | 4° |
| 2026-04-27 09:14 | 77.21937 | 13.21955 | 22525 ft | 356 kts | 4° |
| 2026-04-27 09:15 | 77.24386 | 13.23006 | 22108 ft | 355 kts | 4° |
| 2026-04-27 09:15 | 77.26788 | 13.24036 | 21686 ft | 353 kts | 4° |
| 2026-04-27 09:15 | 77.29210 | 13.25073 | 21289 ft | 351 kts | 4° |
| 2026-04-27 09:15 | 77.31625 | 13.26106 | 20876 ft | 349 kts | 4° |
| 2026-04-27 09:16 | 77.34032 | 13.27140 | 20465 ft | 346 kts | 4° |
| 2026-04-27 09:16 | 77.36378 | 13.28151 | 20226 ft | 342 kts | 4° |
| 2026-04-27 09:16 | 77.38778 | 13.29188 | 20221 ft | 344 kts | 4° |
| 2026-04-27 09:16 | 77.41135 | 13.30211 | 20224 ft | 344 kts | 4° |
| 2026-04-27 09:17 | 77.43528 | 13.31253 | 20219 ft | 344 kts | 4° |
| 2026-04-27 09:17 | 77.45884 | 13.32283 | 20219 ft | 344 kts | 4° |
| 2026-04-27 09:17 | 77.48270 | 13.33330 | 20223 ft | 344 kts | 4° |
| 2026-04-27 09:17 | 77.50607 | 13.34358 | 20207 ft | 340 kts | 4° |
| 2026-04-27 09:18 | 77.52937 | 13.35389 | 19662 ft | 336 kts | 4° |
| 2026-04-27 09:18 | 77.55272 | 13.36423 | 18481 ft | 342 kts | 4° |
| 2026-04-27 09:18 | 77.57618 | 13.37466 | 17277 ft | 345 kts | 4° |
| 2026-04-27 09:18 | 77.59967 | 13.38515 | 16300 ft | 340 kts | 4° |
| 2026-04-27 09:19 | 77.62268 | 13.39549 | 15622 ft | 327 kts | 4° |
| 2026-04-27 09:19 | 77.64463 | 13.40541 | 15194 ft | 315 kts | 4° |
| 2026-04-27 09:19 | 77.66632 | 13.41522 | 14814 ft | 313 kts | 4° |
| 2026-04-27 09:19 | 77.68786 | 13.42497 | 14439 ft | 311 kts | 4° |
| 2026-04-27 09:20 | 77.70921 | 13.43468 | 14062 ft | 310 kts | 4° |
| 2026-04-27 09:20 | 77.73055 | 13.44440 | 13682 ft | 308 kts | 4° |
| 2026-04-27 09:20 | 77.75152 | 13.45401 | 13296 ft | 306 kts | 4° |
| 2026-04-27 09:20 | 77.77256 | 13.46368 | 12914 ft | 304 kts | 4° |
| 2026-04-27 09:21 | 77.79335 | 13.47326 | 12546 ft | 301 kts | 4° |
| 2026-04-27 09:21 | 77.81407 | 13.48282 | 12168 ft | 300 kts | 4° |
| 2026-04-27 09:21 | 77.83476 | 13.49241 | 11793 ft | 298 kts | 4° |
| 2026-04-27 09:21 | 77.85499 | 13.50183 | 11427 ft | 296 kts | 4° |
| 2026-04-27 09:22 | 77.87542 | 13.51136 | 11056 ft | 294 kts | 5° |
| 2026-04-27 09:22 | 77.89565 | 13.52084 | 10692 ft | 292 kts | 5° |
| 2026-04-27 09:22 | 77.91564 | 13.53028 | 10359 ft | 289 kts | 5° |
| 2026-04-27 09:22 | 77.93509 | 13.53951 | 10262 ft | 276 kts | 5° |
| 2026-04-27 09:23 | 77.95372 | 13.54839 | 10107 ft | 267 kts | 5° |
| 2026-04-27 09:23 | 77.97205 | 13.55713 | 9763 ft | 265 kts | 5° |
| 2026-04-27 09:23 | 77.99028 | 13.56582 | 9428 ft | 263 kts | 4° |
| 2026-04-27 09:23 | 78.00835 | 13.57446 | 9100 ft | 261 kts | 4° |
| 2026-04-27 09:24 | 78.02621 | 13.58302 | 8773 ft | 259 kts | 4° |
| 2026-04-27 09:24 | 78.04400 | 13.59156 | 8453 ft | 257 kts | 5° |
| 2026-04-27 09:24 | 78.06119 | 13.60818 | 8134 ft | 255 kts | 17° |
| 2026-04-27 09:24 | 78.07755 | 13.64186 | 7816 ft | 254 kts | 26° |
| 2026-04-27 09:25 | 78.09294 | 13.68235 | 7509 ft | 252 kts | 29° |
| 2026-04-27 09:25 | 78.10806 | 13.72360 | 7209 ft | 250 kts | 29° |
| 2026-04-27 09:25 | 78.12327 | 13.76520 | 6909 ft | 248 kts | 29° |
| 2026-04-27 09:25 | 78.13814 | 13.80584 | 6617 ft | 246 kts | 28° |
| 2026-04-27 09:26 | 78.15295 | 13.84628 | 6324 ft | 244 kts | 28° |
| 2026-04-27 09:26 | 78.16747 | 13.88594 | 6042 ft | 242 kts | 28° |
| 2026-04-27 09:26 | 78.18220 | 13.92625 | 5750 ft | 240 kts | 28° |
| 2026-04-27 09:26 | 78.19667 | 13.96587 | 5467 ft | 239 kts | 28° |
| 2026-04-27 09:27 | 78.21091 | 14.00492 | 5182 ft | 237 kts | 28° |
| 2026-04-27 09:27 | 78.22499 | 14.04365 | 5068 ft | 227 kts | 28° |
| 2026-04-27 09:27 | 78.23836 | 14.08104 | 5020 ft | 219 kts | 30° |
| 2026-04-27 09:27 | 78.25111 | 14.12163 | 4779 ft | 220 kts | 32° |
| 2026-04-27 09:28 | 78.26363 | 14.16326 | 4510 ft | 219 kts | 32° |
| 2026-04-27 09:28 | 78.27610 | 14.20499 | 4247 ft | 217 kts | 32° |
| 2026-04-27 09:28 | 78.28860 | 14.24685 | 4035 ft | 214 kts | 32° |
| 2026-04-27 09:28 | 78.29941 | 14.29430 | 3992 ft | 209 kts | 57° |
| 2026-04-27 09:29 | 78.30327 | 14.35987 | 3931 ft | 203 kts | 86° |
| 2026-04-27 09:29 | 78.30188 | 14.42893 | 3679 ft | 203 kts | 98° |
| 2026-04-27 09:29 | 78.29855 | 14.49646 | 3495 ft | 199 kts | 101° |
| 2026-04-27 09:29 | 78.29494 | 14.56184 | 3364 ft | 199 kts | 102° |
| 2026-04-27 09:30 | 78.29139 | 14.62712 | 3226 ft | 199 kts | 101° |
| 2026-04-27 09:30 | 78.28787 | 14.69310 | 3093 ft | 199 kts | 102° |
| 2026-04-27 09:30 | 78.28434 | 14.75995 | 2953 ft | 199 kts | 102° |
| 2026-04-27 09:30 | 78.28088 | 14.82535 | 2678 ft | 197 kts | 102° |
| 2026-04-27 09:31 | 78.27747 | 14.88948 | 2479 ft | 188 kts | 102° |
| 2026-04-27 09:31 | 78.27492 | 14.94978 | 2199 ft | 178 kts | 98° |
| 2026-04-27 09:31 | 78.27232 | 15.00798 | 1916 ft | 170 kts | 102° |
| 2026-04-27 09:31 | 78.26926 | 15.06305 | 1650 ft | 162 kts | 104° |
| 2026-04-27 09:32 | 78.26622 | 15.11425 | 1412 ft | 153 kts | 104° |
| 2026-04-27 09:32 | 78.26334 | 15.16323 | 1228 ft | 146 kts | 104° |
| 2026-04-27 09:32 | 78.26069 | 15.20924 | 1021 ft | 135 kts | 104° |
| 2026-04-27 09:32 | 78.25819 | 15.25296 | 838 ft | 134 kts | 104° |
| 2026-04-27 09:33 | 78.25572 | 15.29680 | 642 ft | 133 kts | 103° |
| 2026-04-27 09:33 | 78.25332 | 15.34068 | 455 ft | 133 kts | 105° |
| 2026-04-27 09:33 | 78.25084 | 15.38445 | 268 ft | 133 kts | 104° |
| 2026-04-27 09:33 | 78.24834 | 15.42791 | 110 ft | 130 kts | 105° |
| 2026-04-27 09:34 | 78.24631 | 15.46384 | 105 ft | 72 kts | 106° |
| 2026-04-27 09:34 | 78.24538 | 15.47947 | 104 ft | 36 kts | 105° |
| 2026-04-27 09:34 | 78.24483 | 15.48923 | 100 ft | 23 kts | 104° |
| 2026-04-27 09:34 | 78.24499 | 15.49457 | 97 ft | 16 kts | 15° |
| 2026-04-27 09:35 | 78.24572 | 15.49316 | 98 ft | 8 kts | 318° |
| 2026-04-27 09:35 | 78.24615 | 15.49171 | 98 ft | 3 kts | 347° |
| 2026-04-27 09:35 | 78.24640 | 15.49136 | 97 ft | 2 kts | 316° |
| 2026-04-27 09:35 | 78.24642 | 15.49105 | 97 ft | 0 kts | 287° |